createdAt,value
2019-05-12T00:02:18.715Z,51.78
2019-05-12T00:04:50.170Z,52.05
2019-05-12T00:07:21.729Z,51.65
2019-05-12T00:09:53.435Z,51.74
2019-05-12T00:12:24.845Z,51.78
2019-05-12T00:14:58.918Z,52.23
2019-05-12T00:17:29.497Z,52.26
2019-05-12T00:20:01.155Z,51.94
2019-05-12T00:22:34.047Z,52.01
2019-05-12T00:25:08.825Z,51.95
2019-05-12T00:27:40.252Z,51.89
2019-05-12T00:30:13.324Z,51.63
2019-05-12T00:32:44.677Z,51.36
2019-05-12T00:35:18.161Z,51.08
2019-05-12T00:37:49.418Z,51.37
2019-05-12T00:40:20.867Z,51.56
2019-05-12T00:42:52.432Z,51.97
2019-05-12T00:45:23.709Z,52.11
2019-05-12T00:47:54.933Z,52.29
2019-05-12T00:50:26.073Z,52.23
2019-05-12T00:52:58.242Z,52.35
2019-05-12T00:55:30.118Z,52.04
2019-05-12T00:58:01.364Z,51.46
2019-05-12T01:00:32.510Z,51.38
2019-05-12T01:03:04.168Z,51.63
2019-05-12T01:05:38.015Z,51.90
2019-05-12T01:08:09.498Z,51.72
2019-05-12T01:10:41.192Z,51.62
2019-05-12T01:13:12.640Z,51.61
2019-05-12T01:15:43.996Z,51.58
2019-05-12T01:18:17.975Z,51.31
2019-05-12T01:20:48.652Z,51.47
2019-05-12T01:23:23.340Z,51.37
2019-05-12T01:25:53.408Z,51.46
2019-05-12T01:28:24.951Z,51.65
2019-05-12T01:30:58.346Z,51.60
2019-05-12T01:33:29.501Z,51.29
2019-05-12T01:36:01.060Z,51.30
2019-05-12T01:38:32.515Z,51.25
2019-05-12T01:41:04.278Z,51.35
2019-05-12T01:43:38.096Z,51.36
2019-05-12T01:46:08.724Z,51.46
2019-05-12T01:48:39.875Z,51.34
2019-05-12T01:51:11.555Z,51.29
2019-05-12T01:53:43.090Z,51.39
2019-05-12T01:56:14.648Z,50.92
2019-05-12T01:58:48.422Z,50.59
2019-05-12T02:01:19.715Z,50.82
2019-05-12T02:03:52.416Z,50.72
2019-05-12T02:06:24.257Z,50.99
2019-05-12T02:08:58.173Z,51.36
2019-05-12T02:11:32.495Z,51.22
2019-05-12T02:14:04.258Z,51.33
2019-05-12T02:16:35.703Z,51.32
2019-05-12T02:19:09.046Z,51.34
2019-05-12T02:21:40.968Z,51.43
2019-05-12T02:24:23.344Z,51.49
2019-05-12T02:26:44.891Z,51.71
2019-05-12T02:29:18.315Z,51.85
2019-05-12T02:31:50.291Z,51.76
2019-05-12T02:34:25.102Z,51.78
2019-05-12T02:36:55.457Z,52.02
2019-05-12T02:39:26.802Z,51.87
2019-05-12T02:41:58.428Z,51.83
2019-05-12T02:44:30.078Z,51.89
2019-05-12T02:47:04.907Z,51.73
2019-05-12T02:49:34.987Z,51.68
2019-05-12T02:52:06.603Z,51.64
2019-05-12T02:54:51.930Z,51.51
2019-05-12T02:57:14.292Z,51.33
2019-05-12T02:59:45.668Z,51.14
2019-05-12T03:02:17.535Z,51.21
2019-05-12T03:04:48.684Z,51.15
2019-05-12T03:07:19.831Z,51.08
2019-05-12T03:09:54.836Z,51.00
2019-05-12T03:12:25.688Z,51.03
2019-05-12T03:14:56.960Z,51.03
2019-05-12T03:17:28.425Z,51.07
2019-05-12T03:19:59.769Z,50.82
2019-05-12T03:22:31.134Z,50.75
2019-05-12T03:25:11.820Z,50.43
2019-05-12T03:27:35.404Z,50.65
2019-05-12T03:30:11.713Z,50.71
2019-05-12T03:32:39.992Z,50.94
2019-05-12T03:35:17.000Z,50.58
2019-05-12T03:37:45.300Z,50.36
2019-05-12T03:40:16.827Z,50.26
2019-05-12T03:42:48.184Z,50.16
2019-05-12T03:45:19.638Z,50.06
2019-05-12T03:47:50.992Z,49.97
2019-05-12T03:50:24.342Z,49.92
2019-05-12T03:52:56.624Z,49.40
2019-05-12T03:55:35.880Z,49.52
2019-05-12T03:58:00.911Z,49.53
2019-05-12T04:00:35.931Z,49.68
2019-05-12T04:03:06.332Z,49.41
2019-05-12T04:05:37.639Z,49.25
2019-05-12T04:08:10.000Z,49.01
2019-05-12T04:10:41.561Z,48.93
2019-05-12T04:13:15.109Z,49.05
2019-05-12T04:15:46.201Z,49.26
2019-05-12T04:18:17.401Z,49.36
2019-05-12T04:20:49.224Z,49.14
2019-05-12T04:23:20.675Z,48.77
2019-05-12T04:25:58.388Z,48.84
2019-05-12T04:28:24.808Z,48.88
2019-05-12T04:30:57.089Z,48.88
2019-05-12T04:33:28.542Z,48.58
2019-05-12T04:35:59.901Z,48.58
2019-05-12T04:38:31.149Z,48.35
2019-05-12T04:41:05.721Z,48.26
2019-05-12T04:43:35.793Z,48.24
2019-05-12T04:46:07.558Z,48.08
2019-05-12T04:48:38.802Z,47.92
2019-05-12T04:51:10.563Z,47.92
2019-05-12T04:53:44.891Z,47.75
2019-05-12T04:56:20.131Z,47.41
2019-05-12T04:58:47.895Z,47.08
2019-05-12T05:01:19.453Z,47.03
2019-05-12T05:03:50.604Z,46.90
2019-05-12T05:06:21.748Z,46.37
2019-05-12T05:08:54.430Z,46.47
2019-05-12T05:11:25.881Z,46.72
2019-05-12T05:13:57.566Z,46.35
2019-05-12T05:16:28.903Z,46.25
2019-05-12T05:19:00.147Z,46.48
2019-05-12T05:21:31.601Z,45.76
2019-05-12T05:24:03.888Z,44.92
2019-05-12T05:26:37.469Z,44.70
2019-05-12T05:29:08.110Z,44.71
2019-05-12T05:31:39.772Z,44.42
2019-05-12T05:34:11.430Z,44.83
2019-05-12T05:36:43.447Z,44.64
2019-05-12T05:39:14.745Z,43.55
2019-05-12T05:41:50.900Z,43.08
2019-05-12T05:44:19.206Z,42.89
2019-05-12T05:46:54.544Z,41.95
2019-05-12T05:49:24.972Z,42.44
2019-05-12T05:51:57.600Z,41.50
2019-05-12T05:54:31.372Z,42.61
2019-05-12T05:57:03.051Z,41.52
2019-05-12T05:59:36.856Z,41.58
2019-05-12T06:02:07.677Z,42.31
2019-05-12T06:04:43.840Z,42.55
2019-05-12T06:07:14.239Z,41.76
2019-05-12T06:09:45.106Z,42.06
2019-05-12T06:12:16.459Z,42.15
2019-05-12T06:14:54.327Z,41.64
2019-05-12T06:17:20.906Z,42.13
2019-05-12T06:19:53.872Z,41.57
2019-05-12T06:22:25.050Z,42.04
2019-05-12T06:24:58.878Z,41.93
2019-05-12T06:27:32.701Z,42.28
2019-05-12T06:30:06.201Z,42.13
2019-05-12T06:32:35.881Z,41.60
2019-05-12T06:35:07.341Z,42.15
2019-05-12T06:37:44.208Z,40.98
2019-05-12T06:40:15.365Z,41.40
2019-05-12T06:42:48.417Z,41.30
2019-05-12T06:45:20.531Z,41.11
2019-05-12T06:47:54.110Z,41.37
2019-05-12T06:50:28.592Z,41.69
2019-05-12T06:52:58.072Z,41.33
2019-05-12T06:55:34.380Z,40.29
2019-05-12T06:58:04.775Z,39.93
2019-05-12T07:00:35.712Z,39.93
2019-05-12T07:03:07.472Z,39.90
2019-05-12T07:05:42.507Z,39.67
2019-05-12T07:08:12.022Z,40.00
2019-05-12T07:10:46.852Z,40.52
2019-05-12T07:13:23.223Z,39.58
2019-05-12T07:15:49.654Z,39.97
2019-05-12T07:18:31.619Z,39.49
2019-05-12T07:20:55.431Z,38.47
2019-05-12T07:23:30.229Z,38.91
2019-05-12T07:26:04.772Z,39.25
2019-05-12T07:28:36.217Z,39.61
2019-05-12T07:31:05.658Z,39.31
2019-05-12T07:33:41.539Z,39.46
2019-05-12T07:36:10.776Z,39.60
2019-05-12T07:38:43.388Z,39.84
2019-05-12T07:41:15.469Z,39.50
2019-05-12T07:43:50.526Z,40.04
2019-05-12T07:46:19.810Z,39.77
2019-05-12T07:48:51.163Z,39.66
2019-05-12T07:51:24.143Z,39.90
2019-05-12T07:53:58.966Z,39.88
2019-05-12T07:56:32.585Z,40.29
2019-05-12T07:59:04.193Z,40.07
2019-05-12T08:01:35.878Z,39.27
2019-05-12T08:04:07.255Z,39.03
2019-05-12T08:06:41.693Z,38.95
2019-05-12T08:09:13.559Z,38.94
2019-05-12T08:11:45.001Z,38.63
2019-05-12T08:14:26.811Z,38.26
2019-05-12T08:16:50.067Z,37.57
2019-05-12T08:19:26.560Z,37.87
2019-05-12T08:21:54.713Z,38.77
2019-05-12T08:24:26.310Z,38.24
2019-05-12T08:27:03.124Z,38.26
2019-05-12T08:29:30.620Z,38.10
2019-05-12T08:32:03.806Z,37.62
2019-05-12T08:34:35.158Z,37.91
2019-05-12T08:37:07.736Z,37.69
2019-05-12T08:39:39.197Z,37.63
2019-05-12T08:42:10.853Z,37.84
2019-05-12T08:44:43.926Z,37.81
2019-05-12T08:47:15.364Z,37.14
2019-05-12T08:49:55.060Z,37.18
2019-05-12T08:52:19.439Z,37.33
2019-05-12T08:54:51.460Z,37.02
2019-05-12T08:57:24.808Z,37.70
2019-05-12T09:00:02.750Z,37.71
2019-05-12T09:02:29.144Z,37.51
2019-05-12T09:05:00.800Z,37.93
2019-05-12T09:07:35.977Z,37.65
2019-05-12T09:10:08.018Z,38.41
2019-05-12T09:12:39.519Z,38.28
2019-05-12T09:15:13.410Z,37.84
2019-05-12T09:17:52.539Z,37.50
2019-05-12T09:20:18.024Z,37.50
2019-05-12T09:22:55.030Z,37.54
2019-05-12T09:25:23.885Z,37.50
2019-05-12T09:27:55.244Z,38.02
2019-05-12T09:30:28.923Z,37.63
2019-05-12T09:33:00.595Z,37.18
2019-05-12T09:35:34.784Z,36.26
2019-05-12T09:38:06.142Z,36.11
2019-05-12T09:40:37.518Z,35.45
2019-05-12T09:43:10.699Z,34.88
2019-05-12T09:45:52.099Z,34.99
2019-05-12T09:48:15.397Z,35.51
2019-05-12T09:50:51.555Z,35.37
2019-05-12T09:53:19.830Z,35.43
2019-05-12T09:55:53.759Z,35.57
2019-05-12T09:58:27.686Z,35.66
2019-05-12T10:00:57.327Z,35.47
2019-05-12T10:03:30.876Z,34.43
2019-05-12T10:06:03.667Z,34.89
2019-05-12T10:08:35.544Z,35.11
2019-05-12T10:11:10.250Z,34.36
2019-05-12T10:13:44.897Z,34.58
2019-05-12T10:16:15.979Z,34.18
2019-05-12T10:18:51.300Z,34.00
2019-05-12T10:21:20.111Z,33.43
2019-05-12T10:23:56.407Z,33.17
2019-05-12T10:26:23.936Z,32.59
2019-05-12T10:28:58.375Z,32.25
2019-05-12T10:31:29.524Z,32.12
2019-05-12T10:34:18.992Z,31.70
2019-05-12T10:36:53.505Z,31.19
2019-05-12T10:39:24.583Z,29.70
2019-05-12T10:41:56.741Z,29.88
2019-05-12T10:44:29.911Z,29.07
2019-05-12T10:47:04.401Z,29.01
2019-05-12T10:49:36.005Z,29.03
2019-05-12T10:52:07.663Z,29.20
2019-05-12T10:54:38.924Z,29.24
2019-05-12T10:57:10.063Z,29.35
2019-05-12T10:59:45.226Z,29.43
2019-05-12T11:02:14.027Z,29.13
2019-05-12T11:04:45.449Z,28.17
2019-05-12T11:07:16.910Z,28.75
2019-05-12T11:09:49.998Z,29.30
2019-05-12T11:12:25.292Z,30.58
2019-05-12T11:15:01.070Z,30.67
2019-05-12T11:17:33.463Z,29.65
2019-05-12T11:20:04.276Z,28.42
2019-05-12T11:22:35.467Z,27.75
2019-05-12T11:25:07.122Z,27.06
2019-05-12T11:27:38.474Z,26.24
2019-05-12T11:30:10.256Z,25.53
2019-05-12T11:32:41.693Z,25.54
2019-05-12T11:35:14.331Z,25.51
2019-05-12T11:37:45.521Z,24.31
2019-05-12T11:40:16.704Z,23.57
2019-05-12T11:42:55.671Z,22.95
2019-05-12T11:45:21.215Z,23.33
2019-05-12T11:47:59.172Z,23.78
2019-05-12T11:50:25.676Z,23.99
2019-05-12T11:52:57.002Z,24.55
2019-05-12T11:55:31.539Z,24.44
2019-05-12T11:58:06.796Z,24.02
2019-05-12T12:00:35.657Z,23.90
2019-05-12T12:03:12.544Z,23.42
2019-05-12T12:05:39.787Z,22.93
2019-05-12T12:08:10.836Z,22.40
2019-05-12T12:10:42.171Z,22.23
2019-05-12T12:13:14.113Z,22.09
2019-05-12T12:15:45.298Z,22.10
2019-05-12T12:18:16.340Z,22.63
2019-05-12T12:20:48.209Z,23.81
2019-05-12T12:23:19.636Z,23.95
2019-05-12T12:25:53.268Z,24.29
2019-05-12T12:28:24.287Z,24.28
2019-05-12T12:31:00.370Z,24.42
2019-05-12T12:33:30.979Z,24.73
2019-05-12T12:36:03.939Z,25.27
2019-05-12T12:38:34.634Z,25.35
2019-05-12T12:41:05.979Z,25.59
2019-05-12T12:43:37.364Z,25.47
2019-05-12T12:46:10.750Z,25.90
2019-05-12T12:48:43.982Z,26.02
2019-05-12T12:51:17.445Z,26.02
2019-05-12T12:53:48.066Z,28.65
2019-05-12T12:56:27.678Z,32.86
2019-05-12T12:58:52.101Z,32.49
2019-05-12T13:01:28.446Z,33.61
2019-05-12T13:03:59.436Z,35.78
2019-05-12T13:06:29.641Z,38.11
2019-05-12T13:09:00.997Z,39.00
2019-05-12T13:11:34.931Z,40.04
2019-05-12T13:14:05.441Z,41.32
2019-05-12T13:16:36.684Z,39.45
2019-05-12T13:19:12.330Z,38.92
2019-05-12T13:21:41.125Z,38.84
2019-05-12T13:24:12.177Z,38.48
2019-05-12T13:26:43.695Z,37.29
2019-05-12T13:29:14.987Z,37.29
2019-05-12T13:31:48.300Z,37.52
2019-05-12T13:34:19.153Z,37.74
2019-05-12T13:36:50.586Z,38.57
2019-05-12T13:39:24.248Z,39.65
2019-05-12T13:41:58.543Z,39.81
2019-05-12T13:44:30.437Z,40.22
2019-05-12T13:47:00.710Z,41.74
2019-05-12T13:49:38.419Z,41.54
2019-05-12T13:52:06.057Z,41.65
2019-05-12T13:54:37.745Z,41.64
2019-05-12T13:57:11.792Z,42.28
2019-05-12T13:59:43.550Z,41.64
2019-05-12T14:02:22.077Z,42.70
2019-05-12T14:04:48.864Z,43.18
2019-05-12T14:07:20.389Z,43.25
2019-05-12T14:09:51.872Z,41.96
2019-05-12T14:12:23.328Z,40.71
2019-05-12T14:14:54.798Z,40.74
2019-05-12T14:17:26.134Z,40.19
2019-05-12T14:19:58.002Z,40.92
2019-05-12T14:22:29.455Z,40.69
2019-05-12T14:25:02.243Z,39.20
2019-05-12T14:27:33.492Z,38.70
2019-05-12T14:30:11.474Z,38.26
2019-05-12T14:32:38.998Z,38.19
2019-05-12T14:35:10.117Z,38.52
2019-05-12T14:37:45.769Z,38.20
2019-05-12T14:40:15.163Z,38.38
2019-05-12T14:42:46.228Z,37.05
2019-05-12T14:45:19.465Z,36.23
2019-05-12T14:47:50.256Z,36.02
2019-05-12T14:50:21.502Z,36.51
2019-05-12T14:52:55.914Z,36.11
2019-05-12T14:55:26.032Z,34.81
2019-05-12T14:57:57.299Z,34.87
2019-05-12T15:00:29.176Z,34.82
2019-05-12T15:03:05.478Z,35.27
2019-05-12T15:05:33.811Z,35.55
2019-05-12T15:08:05.377Z,36.01
2019-05-12T15:10:36.820Z,36.24
2019-05-12T15:13:08.171Z,36.27
2019-05-12T15:15:39.320Z,36.34
2019-05-12T15:18:13.181Z,36.30
2019-05-12T15:20:49.975Z,36.91
2019-05-12T15:23:16.863Z,37.37
2019-05-12T15:25:50.911Z,38.03
2019-05-12T15:28:23.462Z,38.43
2019-05-12T15:30:54.328Z,38.71
2019-05-12T15:33:26.468Z,38.97
2019-05-12T15:35:57.820Z,39.19
2019-05-12T15:38:29.274Z,40.75
2019-05-12T15:41:00.626Z,41.51
2019-05-12T15:43:35.790Z,41.12
2019-05-12T15:46:05.176Z,41.97
2019-05-12T15:48:36.627Z,41.81
2019-05-12T15:51:09.108Z,42.45
2019-05-12T15:53:44.600Z,41.46
2019-05-12T15:56:23.104Z,41.46
2019-05-12T15:58:55.830Z,42.43
2019-05-12T16:01:26.364Z,42.42
2019-05-12T16:03:59.232Z,42.86
2019-05-12T16:06:31.601Z,40.91
2019-05-12T16:09:04.843Z,40.74
2019-05-12T16:11:35.889Z,41.06
2019-05-12T16:14:06.832Z,40.80
2019-05-12T16:16:42.432Z,41.83
2019-05-12T16:19:11.060Z,42.25
2019-05-12T16:21:45.304Z,41.98
2019-05-12T16:24:15.777Z,42.43
2019-05-12T16:26:51.721Z,43.07
2019-05-12T16:29:19.860Z,43.32
2019-05-12T16:31:53.782Z,42.43
2019-05-12T16:34:25.040Z,43.69
2019-05-12T16:36:56.277Z,43.76
2019-05-12T16:39:30.502Z,43.67
2019-05-12T16:42:08.336Z,43.93
2019-05-12T16:44:34.858Z,43.60
2019-05-12T16:47:06.183Z,44.90
2019-05-12T16:49:37.641Z,43.37
2019-05-12T16:52:10.147Z,44.27
2019-05-12T16:54:43.885Z,44.23
2019-05-12T16:57:18.120Z,44.19
2019-05-12T16:59:55.556Z,43.71
2019-05-12T17:02:23.358Z,43.04
2019-05-12T17:04:54.028Z,43.67
2019-05-12T17:07:27.144Z,43.00
2019-05-12T17:10:03.047Z,43.85
2019-05-12T17:12:36.479Z,43.30
2019-05-12T17:15:05.088Z,43.84
2019-05-12T17:17:36.232Z,44.38
2019-05-12T17:20:07.927Z,44.67
2019-05-12T17:22:45.786Z,45.28
2019-05-12T17:25:15.299Z,44.92
2019-05-12T17:27:46.906Z,45.14
2019-05-12T17:30:18.375Z,46.07
2019-05-12T17:32:58.084Z,47.17
2019-05-12T17:35:27.084Z,47.66
2019-05-12T17:37:56.067Z,48.14
2019-05-12T17:40:27.864Z,48.79
2019-05-12T17:43:06.853Z,48.78
2019-05-12T17:45:32.172Z,49.44
2019-05-12T17:48:07.422Z,49.25
2019-05-12T17:50:40.385Z,48.51
2019-05-12T17:53:09.402Z,48.02
2019-05-12T17:55:42.725Z,47.96
2019-05-12T17:58:13.856Z,47.69
2019-05-12T18:00:47.692Z,47.72
2019-05-12T18:03:22.161Z,47.57
2019-05-12T18:05:52.971Z,47.38
2019-05-12T18:08:32.325Z,47.50
2019-05-12T18:10:57.082Z,47.89
2019-05-12T18:13:28.606Z,47.84
2019-05-12T18:16:02.912Z,47.63
2019-05-12T18:18:37.957Z,47.96
2019-05-12T18:21:06.109Z,48.03
2019-05-12T18:23:40.263Z,48.66
2019-05-12T18:26:15.918Z,48.59
2019-05-12T18:28:44.608Z,48.83
2019-05-12T18:31:16.181Z,48.60
2019-05-12T18:33:52.089Z,48.24
2019-05-12T18:36:23.665Z,48.14
2019-05-12T18:39:04.443Z,48.23
2019-05-12T18:41:28.521Z,48.16
2019-05-12T18:44:00.088Z,48.10
2019-05-12T18:46:38.668Z,48.00
2019-05-12T18:49:11.983Z,47.87
2019-05-12T18:51:37.705Z,47.84
2019-05-12T18:54:10.427Z,47.98
2019-05-12T18:56:44.037Z,47.89
2019-05-12T18:59:16.591Z,47.87
2019-05-12T19:01:48.329Z,47.80
2019-05-12T19:04:19.721Z,47.79
2019-05-12T19:06:51.157Z,47.74
2019-05-12T19:09:23.895Z,47.69
2019-05-12T19:11:55.392Z,47.61
2019-05-12T19:14:34.936Z,47.62
2019-05-12T19:16:59.811Z,47.75
2019-05-12T19:19:31.469Z,47.87
2019-05-12T19:22:09.073Z,48.12
2019-05-12T19:24:36.475Z,48.49
2019-05-12T19:27:10.216Z,48.68
2019-05-12T19:29:48.190Z,48.68
2019-05-12T19:32:14.372Z,49.37
2019-05-12T19:34:46.278Z,50.05
2019-05-12T19:37:19.421Z,50.57
2019-05-12T19:39:50.995Z,50.60
2019-05-12T19:42:24.415Z,50.55
2019-05-12T19:44:59.662Z,50.39
2019-05-12T19:47:34.500Z,50.22
2019-05-12T19:50:08.860Z,50.01
2019-05-12T19:52:34.305Z,49.94
2019-05-12T19:55:08.527Z,49.77
2019-05-12T19:57:39.985Z,49.64
2019-05-12T20:00:13.649Z,49.63
2019-05-12T20:02:44.190Z,49.41
2019-05-12T20:05:17.641Z,49.14
2019-05-12T20:07:48.163Z,48.87
2019-05-12T20:10:19.719Z,48.71
2019-05-12T20:12:54.912Z,48.65
2019-05-12T20:15:24.255Z,48.39
2019-05-12T20:17:55.410Z,48.51
2019-05-12T20:20:36.645Z,48.44
2019-05-12T20:22:59.753Z,48.55
2019-05-12T20:25:31.107Z,48.35
2019-05-12T20:28:05.578Z,48.14
2019-05-12T20:30:35.551Z,48.01
2019-05-12T20:33:08.176Z,47.81
2019-05-12T20:35:47.324Z,48.02
2019-05-12T20:38:14.763Z,47.93
2019-05-12T20:40:45.457Z,47.83
2019-05-12T20:43:18.063Z,47.77
2019-05-12T20:45:49.700Z,47.91
2019-05-12T20:48:26.388Z,47.91
2019-05-12T20:50:54.761Z,47.75
2019-05-12T20:53:31.781Z,47.55
2019-05-12T20:56:00.209Z,47.45
2019-05-12T20:58:39.536Z,47.34
2019-05-12T21:01:08.463Z,47.23
2019-05-12T21:03:46.342Z,47.18
2019-05-12T21:06:14.564Z,47.18
2019-05-12T21:08:53.619Z,47.14
2019-05-12T21:11:19.796Z,47.29
2019-05-12T21:13:51.453Z,47.20
2019-05-12T21:16:31.244Z,47.09
2019-05-12T21:19:05.625Z,47.29
2019-05-12T21:21:34.247Z,47.17
2019-05-12T21:24:04.840Z,47.07
2019-05-12T21:26:37.872Z,46.92
2019-05-12T21:29:07.874Z,46.60
2019-05-12T21:31:39.519Z,46.60
2019-05-12T21:34:15.061Z,46.56
2019-05-12T21:36:44.595Z,46.47
2019-05-12T21:39:16.469Z,46.40
2019-05-12T21:41:52.101Z,46.27
2019-05-12T21:44:21.090Z,46.27
2019-05-12T21:47:03.776Z,46.16
2019-05-12T21:49:25.539Z,45.90
2019-05-12T21:52:02.974Z,46.14
2019-05-12T21:54:37.746Z,46.30
2019-05-12T21:57:03.796Z,45.92
2019-05-12T21:59:39.421Z,46.02
2019-05-12T22:02:08.138Z,46.10
2019-05-12T22:04:41.504Z,46.29
2019-05-12T22:07:14.584Z,46.20
2019-05-12T22:09:47.178Z,45.90
2019-05-12T22:12:23.505Z,45.68
2019-05-12T22:14:54.314Z,45.66
2019-05-12T22:17:27.722Z,45.56
2019-05-12T22:19:59.320Z,45.37
2019-05-12T22:22:33.214Z,45.27
2019-05-12T22:25:09.801Z,45.23
2019-05-12T22:27:39.547Z,45.42
2019-05-12T22:30:13.349Z,45.67
2019-05-12T22:32:44.228Z,45.64
2019-05-12T22:35:21.940Z,45.50
2019-05-12T22:37:49.072Z,45.37
2019-05-12T22:40:20.526Z,45.52
2019-05-12T22:42:57.033Z,45.48
2019-05-12T22:45:25.381Z,45.53
2019-05-12T22:47:59.080Z,45.55
2019-05-12T22:50:33.215Z,45.62
2019-05-12T22:53:04.436Z,45.56
2019-05-12T22:55:36.367Z,45.65
2019-05-12T22:58:10.842Z,45.70
2019-05-12T23:00:40.670Z,45.62
2019-05-12T23:03:14.974Z,45.65
2019-05-12T23:05:50.609Z,45.64
2019-05-12T23:08:19.743Z,45.48
2019-05-12T23:10:53.267Z,45.56
2019-05-12T23:13:24.008Z,45.56
2019-05-12T23:15:55.743Z,45.56
2019-05-12T23:18:30.700Z,45.54
2019-05-12T23:21:04.139Z,45.41
2019-05-12T23:23:34.083Z,45.41
2019-05-12T23:26:05.662Z,45.35
2019-05-12T23:28:40.499Z,45.41
2019-05-12T23:31:10.311Z,45.30
2019-05-12T23:33:44.129Z,45.13
2019-05-12T23:36:19.570Z,45.13
2019-05-12T23:38:51.996Z,45.13
2019-05-12T23:41:23.794Z,45.08
2019-05-12T23:43:56.701Z,45.01
2019-05-12T23:46:27.848Z,45.01
2019-05-12T23:48:59.506Z,44.97
2019-05-12T23:51:31.062Z,44.90
2019-05-12T23:54:03.782Z,44.91
2019-05-12T23:56:35.309Z,44.92
2019-05-12T23:59:06.659Z,44.87
